sensor_id;sensor_type;location;lat;lon;timestamp;P1;durP1;ratioP1;P2;durP2;ratioP2
41705;SDS011;27385;51.096;17.190;2022-08-27T00:00:14;17.20;;;2.70;;
41705;SDS011;27385;51.096;17.190;2022-08-27T00:03:04;11.50;;;2.40;;
41705;SDS011;27385;51.096;17.190;2022-08-27T00:05:35;15.40;;;3.10;;
41705;SDS011;27385;51.096;17.190;2022-08-27T00:08:08;15.80;;;3.30;;
41705;SDS011;27385;51.096;17.190;2022-08-27T00:10:42;16.40;;;2.60;;
41705;SDS011;27385;51.096;17.190;2022-08-27T00:13:13;10.90;;;3.00;;
41705;SDS011;27385;51.096;17.190;2022-08-27T00:15:45;15.00;;;2.80;;
41705;SDS011;27385;51.096;17.190;2022-08-27T00:18:16;10.00;;;2.20;;
41705;SDS011;27385;51.096;17.190;2022-08-27T00:20:48;8.30;;;2.30;;
41705;SDS011;27385;51.096;17.190;2022-08-27T00:23:20;14.20;;;3.20;;
41705;SDS011;27385;51.096;17.190;2022-08-27T00:25:51;12.10;;;2.50;;
41705;SDS011;27385;51.096;17.190;2022-08-27T00:28:24;9.00;;;2.30;;
41705;SDS011;27385;51.096;17.190;2022-08-27T00:30:56;15.10;;;2.70;;
41705;SDS011;27385;51.096;17.190;2022-08-27T00:33:28;14.60;;;2.50;;
41705;SDS011;27385;51.096;17.190;2022-08-27T00:35:59;11.00;;;2.50;;
41705;SDS011;27385;51.096;17.190;2022-08-27T00:38:32;10.70;;;2.90;;
41705;SDS011;27385;51.096;17.190;2022-08-27T00:41:06;12.40;;;3.10;;
41705;SDS011;27385;51.096;17.190;2022-08-27T00:43:47;10.80;;;2.50;;
41705;SDS011;27385;51.096;17.190;2022-08-27T00:46:22;9.90;;;2.70;;
41705;SDS011;27385;51.096;17.190;2022-08-27T00:48:59;9.80;;;2.50;;
41705;SDS011;27385;51.096;17.190;2022-08-27T00:51:35;10.90;;;3.10;;
41705;SDS011;27385;51.096;17.190;2022-08-27T00:54:07;12.90;;;2.80;;
41705;SDS011;27385;51.096;17.190;2022-08-27T00:56:40;13.40;;;2.40;;
41705;SDS011;27385;51.096;17.190;2022-08-27T00:59:13;14.40;;;3.10;;
41705;SDS011;27385;51.096;17.190;2022-08-27T01:01:46;13.10;;;3.10;;
41705;SDS011;27385;51.096;17.190;2022-08-27T01:04:35;12.60;;;2.90;;
41705;SDS011;27385;51.096;17.190;2022-08-27T01:07:09;10.90;;;3.00;;
41705;SDS011;27385;51.096;17.190;2022-08-27T01:09:41;12.00;;;2.70;;
41705;SDS011;27385;51.096;17.190;2022-08-27T01:12:14;10.20;;;3.20;;
41705;SDS011;27385;51.096;17.190;2022-08-27T01:14:46;14.10;;;3.00;;
41705;SDS011;27385;51.096;17.190;2022-08-27T01:17:18;13.80;;;3.10;;
41705;SDS011;27385;51.096;17.190;2022-08-27T01:19:51;13.50;;;3.00;;
41705;SDS011;27385;51.096;17.190;2022-08-27T01:22:28;11.00;;;2.60;;
41705;SDS011;27385;51.096;17.190;2022-08-27T01:25:11;14.90;;;2.70;;
41705;SDS011;27385;51.096;17.190;2022-08-27T01:27:44;9.60;;;2.50;;
41705;SDS011;27385;51.096;17.190;2022-08-27T01:30:18;13.10;;;3.10;;
41705;SDS011;27385;51.096;17.190;2022-08-27T01:32:51;15.80;;;2.60;;
41705;SDS011;27385;51.096;17.190;2022-08-27T01:35:22;12.50;;;2.90;;
41705;SDS011;27385;51.096;17.190;2022-08-27T01:37:54;13.60;;;3.20;;
41705;SDS011;27385;51.096;17.190;2022-08-27T01:40:26;11.30;;;3.00;;
41705;SDS011;27385;51.096;17.190;2022-08-27T01:42:58;11.10;;;2.70;;
41705;SDS011;27385;51.096;17.190;2022-08-27T01:45:31;10.40;;;2.40;;
41705;SDS011;27385;51.096;17.190;2022-08-27T01:48:06;13.30;;;2.60;;
41705;SDS011;27385;51.096;17.190;2022-08-27T01:50:38;10.50;;;3.20;;
41705;SDS011;27385;51.096;17.190;2022-08-27T01:53:11;9.80;;;2.40;;
41705;SDS011;27385;51.096;17.190;2022-08-27T01:55:46;15.30;;;3.30;;
41705;SDS011;27385;51.096;17.190;2022-08-27T01:58:19;13.20;;;4.30;;
41705;SDS011;27385;51.096;17.190;2022-08-27T02:00:56;19.50;;;3.80;;
41705;SDS011;27385;51.096;17.190;2022-08-27T02:03:30;12.30;;;3.50;;
41705;SDS011;27385;51.096;17.190;2022-08-27T02:06:05;11.40;;;2.80;;
41705;SDS011;27385;51.096;17.190;2022-08-27T02:08:38;13.70;;;3.40;;
41705;SDS011;27385;51.096;17.190;2022-08-27T02:11:11;18.60;;;4.50;;
41705;SDS011;27385;51.096;17.190;2022-08-27T02:13:42;13.30;;;3.30;;
41705;SDS011;27385;51.096;17.190;2022-08-27T02:16:14;15.60;;;3.40;;
41705;SDS011;27385;51.096;17.190;2022-08-27T02:18:45;16.50;;;4.90;;
41705;SDS011;27385;51.096;17.190;2022-08-27T02:21:17;12.40;;;2.80;;
41705;SDS011;27385;51.096;17.190;2022-08-27T02:23:49;10.70;;;3.30;;
41705;SDS011;27385;51.096;17.190;2022-08-27T02:26:22;12.00;;;3.90;;
41705;SDS011;27385;51.096;17.190;2022-08-27T02:28:54;12.30;;;2.90;;
41705;SDS011;27385;51.096;17.190;2022-08-27T02:31:26;14.60;;;3.20;;
41705;SDS011;27385;51.096;17.190;2022-08-27T02:33:58;12.40;;;3.10;;
41705;SDS011;27385;51.096;17.190;2022-08-27T02:36:30;15.90;;;3.60;;
41705;SDS011;27385;51.096;17.190;2022-08-27T02:39:04;13.70;;;3.00;;
41705;SDS011;27385;51.096;17.190;2022-08-27T02:41:36;12.80;;;3.60;;
41705;SDS011;27385;51.096;17.190;2022-08-27T02:44:07;14.60;;;3.40;;
41705;SDS011;27385;51.096;17.190;2022-08-27T02:46:40;11.00;;;3.40;;
41705;SDS011;27385;51.096;17.190;2022-08-27T02:49:12;14.20;;;2.90;;
41705;SDS011;27385;51.096;17.190;2022-08-27T02:51:43;16.60;;;3.20;;
41705;SDS011;27385;51.096;17.190;2022-08-27T02:54:15;10.80;;;3.10;;
41705;SDS011;27385;51.096;17.190;2022-08-27T02:56:49;12.90;;;3.00;;
41705;SDS011;27385;51.096;17.190;2022-08-27T02:59:22;10.60;;;3.30;;
41705;SDS011;27385;51.096;17.190;2022-08-27T03:01:53;11.40;;;3.30;;
41705;SDS011;27385;51.096;17.190;2022-08-27T03:04:26;15.50;;;3.20;;
41705;SDS011;27385;51.096;17.190;2022-08-27T03:06:57;12.00;;;2.70;;
41705;SDS011;27385;51.096;17.190;2022-08-27T03:09:29;16.40;;;3.80;;
41705;SDS011;27385;51.096;17.190;2022-08-27T03:12:02;10.60;;;3.00;;
41705;SDS011;27385;51.096;17.190;2022-08-27T03:14:33;11.80;;;3.60;;
41705;SDS011;27385;51.096;17.190;2022-08-27T03:17:05;18.20;;;3.40;;
41705;SDS011;27385;51.096;17.190;2022-08-27T03:19:53;10.50;;;3.10;;
41705;SDS011;27385;51.096;17.190;2022-08-27T03:22:25;13.40;;;3.30;;
41705;SDS011;27385;51.096;17.190;2022-08-27T03:24:57;11.90;;;3.50;;
41705;SDS011;27385;51.096;17.190;2022-08-27T03:27:29;15.80;;;3.50;;
41705;SDS011;27385;51.096;17.190;2022-08-27T03:30:02;10.60;;;3.30;;
41705;SDS011;27385;51.096;17.190;2022-08-27T03:32:36;13.90;;;3.50;;
41705;SDS011;27385;51.096;17.190;2022-08-27T03:35:08;14.70;;;3.50;;
41705;SDS011;27385;51.096;17.190;2022-08-27T03:37:40;15.20;;;3.90;;
41705;SDS011;27385;51.096;17.190;2022-08-27T03:40:13;13.90;;;3.50;;
41705;SDS011;27385;51.096;17.190;2022-08-27T03:42:45;19.10;;;4.10;;
41705;SDS011;27385;51.096;17.190;2022-08-27T03:45:18;13.40;;;4.30;;
41705;SDS011;27385;51.096;17.190;2022-08-27T03:47:50;13.90;;;3.10;;
41705;SDS011;27385;51.096;17.190;2022-08-27T03:50:22;13.50;;;3.40;;
41705;SDS011;27385;51.096;17.190;2022-08-27T03:52:54;12.30;;;4.60;;
41705;SDS011;27385;51.096;17.190;2022-08-27T03:55:26;12.60;;;3.60;;
41705;SDS011;27385;51.096;17.190;2022-08-27T03:57:58;15.30;;;4.20;;
41705;SDS011;27385;51.096;17.190;2022-08-27T04:00:30;16.30;;;4.60;;
41705;SDS011;27385;51.096;17.190;2022-08-27T04:03:02;14.60;;;3.90;;
41705;SDS011;27385;51.096;17.190;2022-08-27T04:05:35;15.20;;;4.10;;
41705;SDS011;27385;51.096;17.190;2022-08-27T04:08:06;11.60;;;3.50;;
41705;SDS011;27385;51.096;17.190;2022-08-27T04:10:39;12.30;;;5.00;;
41705;SDS011;27385;51.096;17.190;2022-08-27T04:13:12;18.00;;;5.00;;
41705;SDS011;27385;51.096;17.190;2022-08-27T04:15:44;15.00;;;4.30;;
41705;SDS011;27385;51.096;17.190;2022-08-27T04:18:18;16.60;;;4.60;;
41705;SDS011;27385;51.096;17.190;2022-08-27T04:20:50;15.50;;;4.40;;
41705;SDS011;27385;51.096;17.190;2022-08-27T04:23:21;16.20;;;4.70;;
41705;SDS011;27385;51.096;17.190;2022-08-27T04:25:53;20.20;;;5.70;;
41705;SDS011;27385;51.096;17.190;2022-08-27T04:28:24;13.90;;;4.50;;
41705;SDS011;27385;51.096;17.190;2022-08-27T04:30:57;13.00;;;4.40;;
41705;SDS011;27385;51.096;17.190;2022-08-27T04:33:30;12.10;;;3.70;;
41705;SDS011;27385;51.096;17.190;2022-08-27T04:36:03;13.40;;;5.00;;
41705;SDS011;27385;51.096;17.190;2022-08-27T04:38:37;14.50;;;4.90;;
41705;SDS011;27385;51.096;17.190;2022-08-27T04:41:09;17.30;;;4.40;;
41705;SDS011;27385;51.096;17.190;2022-08-27T04:43:52;15.40;;;5.10;;
41705;SDS011;27385;51.096;17.190;2022-08-27T04:46:26;16.40;;;5.10;;
41705;SDS011;27385;51.096;17.190;2022-08-27T04:49:00;15.00;;;4.90;;
41705;SDS011;27385;51.096;17.190;2022-08-27T04:51:33;22.00;;;7.60;;
41705;SDS011;27385;51.096;17.190;2022-08-27T04:54:06;16.00;;;4.80;;
41705;SDS011;27385;51.096;17.190;2022-08-27T04:56:38;19.70;;;5.80;;
41705;SDS011;27385;51.096;17.190;2022-08-27T04:59:10;19.70;;;5.80;;
41705;SDS011;27385;51.096;17.190;2022-08-27T05:01:42;18.00;;;5.60;;
41705;SDS011;27385;51.096;17.190;2022-08-27T05:04:15;17.40;;;5.40;;
41705;SDS011;27385;51.096;17.190;2022-08-27T05:06:47;20.10;;;6.00;;
41705;SDS011;27385;51.096;17.190;2022-08-27T05:09:19;21.00;;;5.90;;
41705;SDS011;27385;51.096;17.190;2022-08-27T05:11:51;14.60;;;5.50;;
41705;SDS011;27385;51.096;17.190;2022-08-27T05:14:23;17.70;;;5.70;;
41705;SDS011;27385;51.096;17.190;2022-08-27T05:16:57;14.70;;;5.50;;
41705;SDS011;27385;51.096;17.190;2022-08-27T05:19:30;16.20;;;5.30;;
41705;SDS011;27385;51.096;17.190;2022-08-27T05:22:02;15.90;;;5.10;;
41705;SDS011;27385;51.096;17.190;2022-08-27T05:24:33;15.90;;;4.70;;
41705;SDS011;27385;51.096;17.190;2022-08-27T05:27:05;18.20;;;5.90;;
41705;SDS011;27385;51.096;17.190;2022-08-27T05:29:36;15.50;;;5.00;;
41705;SDS011;27385;51.096;17.190;2022-08-27T05:32:09;14.10;;;5.30;;
41705;SDS011;27385;51.096;17.190;2022-08-27T05:34:40;15.30;;;5.80;;
41705;SDS011;27385;51.096;17.190;2022-08-27T05:37:12;18.90;;;4.80;;
41705;SDS011;27385;51.096;17.190;2022-08-27T05:39:44;15.00;;;5.70;;
41705;SDS011;27385;51.096;17.190;2022-08-27T05:42:15;26.60;;;6.20;;
41705;SDS011;27385;51.096;17.190;2022-08-27T05:44:47;16.40;;;5.90;;
41705;SDS011;27385;51.096;17.190;2022-08-27T05:47:18;17.30;;;6.50;;
41705;SDS011;27385;51.096;17.190;2022-08-27T05:49:51;17.80;;;6.50;;
41705;SDS011;27385;51.096;17.190;2022-08-27T05:52:23;20.20;;;7.20;;
41705;SDS011;27385;51.096;17.190;2022-08-27T05:54:55;21.80;;;8.30;;
41705;SDS011;27385;51.096;17.190;2022-08-27T05:57:27;20.00;;;7.50;;
41705;SDS011;27385;51.096;17.190;2022-08-27T05:59:58;19.20;;;8.00;;
41705;SDS011;27385;51.096;17.190;2022-08-27T06:02:47;21.40;;;8.50;;
41705;SDS011;27385;51.096;17.190;2022-08-27T06:05:18;18.30;;;7.40;;
41705;SDS011;27385;51.096;17.190;2022-08-27T06:07:50;19.50;;;7.60;;
41705;SDS011;27385;51.096;17.190;2022-08-27T06:10:22;19.90;;;8.60;;
41705;SDS011;27385;51.096;17.190;2022-08-27T06:12:54;24.80;;;8.50;;
41705;SDS011;27385;51.096;17.190;2022-08-27T06:15:25;18.90;;;8.50;;
41705;SDS011;27385;51.096;17.190;2022-08-27T06:17:58;22.60;;;7.90;;
41705;SDS011;27385;51.096;17.190;2022-08-27T06:20:32;22.20;;;9.00;;
41705;SDS011;27385;51.096;17.190;2022-08-27T06:23:03;22.50;;;7.90;;
41705;SDS011;27385;51.096;17.190;2022-08-27T06:25:38;21.00;;;7.70;;
41705;SDS011;27385;51.096;17.190;2022-08-27T06:28:12;21.30;;;9.50;;
41705;SDS011;27385;51.096;17.190;2022-08-27T06:30:43;21.30;;;9.20;;
41705;SDS011;27385;51.096;17.190;2022-08-27T06:33:15;22.00;;;7.10;;
41705;SDS011;27385;51.096;17.190;2022-08-27T06:35:48;24.00;;;8.30;;
41705;SDS011;27385;51.096;17.190;2022-08-27T06:38:19;21.30;;;8.80;;
41705;SDS011;27385;51.096;17.190;2022-08-27T06:40:51;21.20;;;8.50;;
41705;SDS011;27385;51.096;17.190;2022-08-27T06:43:23;20.30;;;8.00;;
41705;SDS011;27385;51.096;17.190;2022-08-27T06:45:55;19.80;;;8.90;;
41705;SDS011;27385;51.096;17.190;2022-08-27T06:48:30;23.70;;;8.40;;
41705;SDS011;27385;51.096;17.190;2022-08-27T06:51:07;24.30;;;8.80;;
41705;SDS011;27385;51.096;17.190;2022-08-27T06:53:40;22.40;;;9.10;;
41705;SDS011;27385;51.096;17.190;2022-08-27T06:56:14;20.60;;;9.20;;
41705;SDS011;27385;51.096;17.190;2022-08-27T06:58:46;20.50;;;8.10;;
41705;SDS011;27385;51.096;17.190;2022-08-27T07:01:20;21.90;;;7.90;;
41705;SDS011;27385;51.096;17.190;2022-08-27T07:03:55;23.30;;;7.30;;
41705;SDS011;27385;51.096;17.190;2022-08-27T07:06:28;19.10;;;6.90;;
41705;SDS011;27385;51.096;17.190;2022-08-27T07:09:00;19.20;;;7.60;;
41705;SDS011;27385;51.096;17.190;2022-08-27T07:11:33;21.80;;;7.40;;
41705;SDS011;27385;51.096;17.190;2022-08-27T07:14:05;15.80;;;6.30;;
41705;SDS011;27385;51.096;17.190;2022-08-27T07:16:38;17.90;;;7.10;;
41705;SDS011;27385;51.096;17.190;2022-08-27T07:19:11;21.30;;;6.50;;
41705;SDS011;27385;51.096;17.190;2022-08-27T07:21:43;18.60;;;6.60;;
41705;SDS011;27385;51.096;17.190;2022-08-27T07:24:15;23.10;;;6.40;;
41705;SDS011;27385;51.096;17.190;2022-08-27T07:26:47;19.70;;;7.10;;
41705;SDS011;27385;51.096;17.190;2022-08-27T07:29:18;27.10;;;6.40;;
41705;SDS011;27385;51.096;17.190;2022-08-27T07:31:50;18.10;;;6.70;;
41705;SDS011;27385;51.096;17.190;2022-08-27T07:34:22;14.80;;;5.70;;
41705;SDS011;27385;51.096;17.190;2022-08-27T07:36:54;17.40;;;5.70;;
41705;SDS011;27385;51.096;17.190;2022-08-27T07:39:26;17.50;;;6.60;;
41705;SDS011;27385;51.096;17.190;2022-08-27T07:41:58;15.60;;;4.80;;
41705;SDS011;27385;51.096;17.190;2022-08-27T07:44:47;18.60;;;6.20;;
41705;SDS011;27385;51.096;17.190;2022-08-27T07:47:18;17.40;;;6.40;;
41705;SDS011;27385;51.096;17.190;2022-08-27T07:49:50;13.60;;;5.50;;
41705;SDS011;27385;51.096;17.190;2022-08-27T07:52:21;17.90;;;5.80;;
41705;SDS011;27385;51.096;17.190;2022-08-27T07:54:55;15.60;;;5.80;;
41705;SDS011;27385;51.096;17.190;2022-08-27T07:57:27;17.10;;;5.60;;
41705;SDS011;27385;51.096;17.190;2022-08-27T07:59:59;17.00;;;4.80;;
41705;SDS011;27385;51.096;17.190;2022-08-27T08:02:31;15.70;;;5.40;;
41705;SDS011;27385;51.096;17.190;2022-08-27T08:05:03;14.70;;;5.30;;
41705;SDS011;27385;51.096;17.190;2022-08-27T08:07:35;18.10;;;5.30;;
41705;SDS011;27385;51.096;17.190;2022-08-27T08:10:08;17.30;;;5.80;;
41705;SDS011;27385;51.096;17.190;2022-08-27T08:12:40;16.80;;;5.70;;
41705;SDS011;27385;51.096;17.190;2022-08-27T08:15:13;24.50;;;6.30;;
41705;SDS011;27385;51.096;17.190;2022-08-27T08:17:47;19.40;;;5.40;;
41705;SDS011;27385;51.096;17.190;2022-08-27T08:20:19;17.20;;;5.10;;
41705;SDS011;27385;51.096;17.190;2022-08-27T08:22:51;16.10;;;5.30;;
41705;SDS011;27385;51.096;17.190;2022-08-27T08:25:23;19.50;;;5.60;;
41705;SDS011;27385;51.096;17.190;2022-08-27T08:27:55;13.40;;;5.00;;
41705;SDS011;27385;51.096;17.190;2022-08-27T08:30:27;14.80;;;5.60;;
41705;SDS011;27385;51.096;17.190;2022-08-27T08:32:58;15.10;;;5.20;;
41705;SDS011;27385;51.096;17.190;2022-08-27T08:35:30;17.40;;;5.60;;
41705;SDS011;27385;51.096;17.190;2022-08-27T08:38:01;21.40;;;5.80;;
41705;SDS011;27385;51.096;17.190;2022-08-27T08:40:34;17.20;;;5.80;;
41705;SDS011;27385;51.096;17.190;2022-08-27T08:43:11;16.40;;;5.10;;
41705;SDS011;27385;51.096;17.190;2022-08-27T08:45:54;17.70;;;6.20;;
41705;SDS011;27385;51.096;17.190;2022-08-27T08:48:31;18.40;;;5.60;;
41705;SDS011;27385;51.096;17.190;2022-08-27T08:51:04;15.60;;;5.80;;
41705;SDS011;27385;51.096;17.190;2022-08-27T08:53:45;18.70;;;5.40;;
41705;SDS011;27385;51.096;17.190;2022-08-27T08:56:23;15.80;;;4.70;;
41705;SDS011;27385;51.096;17.190;2022-08-27T08:59:01;14.60;;;4.30;;
41705;SDS011;27385;51.096;17.190;2022-08-27T09:01:37;11.70;;;4.30;;
41705;SDS011;27385;51.096;17.190;2022-08-27T09:04:10;16.90;;;5.30;;
41705;SDS011;27385;51.096;17.190;2022-08-27T09:06:43;18.60;;;5.20;;
41705;SDS011;27385;51.096;17.190;2022-08-27T09:09:20;15.40;;;4.90;;
41705;SDS011;27385;51.096;17.190;2022-08-27T09:11:56;19.80;;;5.20;;
41705;SDS011;27385;51.096;17.190;2022-08-27T09:14:35;15.20;;;5.10;;
41705;SDS011;27385;51.096;17.190;2022-08-27T09:17:11;18.80;;;5.00;;
41705;SDS011;27385;51.096;17.190;2022-08-27T09:19:43;17.90;;;5.40;;
41705;SDS011;27385;51.096;17.190;2022-08-27T09:22:17;19.80;;;5.00;;
41705;SDS011;27385;51.096;17.190;2022-08-27T09:24:59;17.10;;;5.60;;
41705;SDS011;27385;51.096;17.190;2022-08-27T09:27:38;13.10;;;4.30;;
41705;SDS011;27385;51.096;17.190;2022-08-27T09:30:15;15.10;;;5.10;;
41705;SDS011;27385;51.096;17.190;2022-08-27T09:32:53;17.40;;;5.40;;
41705;SDS011;27385;51.096;17.190;2022-08-27T09:35:27;15.40;;;4.60;;
41705;SDS011;27385;51.096;17.190;2022-08-27T09:38:04;18.20;;;4.90;;
41705;SDS011;27385;51.096;17.190;2022-08-27T09:40:40;15.90;;;3.90;;
41705;SDS011;27385;51.096;17.190;2022-08-27T09:43:20;12.70;;;4.20;;
41705;SDS011;27385;51.096;17.190;2022-08-27T09:45:55;17.20;;;4.80;;
41705;SDS011;27385;51.096;17.190;2022-08-27T09:48:37;17.70;;;3.60;;
41705;SDS011;27385;51.096;17.190;2022-08-27T09:51:11;13.70;;;3.40;;
41705;SDS011;27385;51.096;17.190;2022-08-27T09:53:46;12.70;;;3.80;;
41705;SDS011;27385;51.096;17.190;2022-08-27T09:56:25;16.60;;;3.20;;
41705;SDS011;27385;51.096;17.190;2022-08-27T09:59:02;11.40;;;4.30;;
41705;SDS011;27385;51.096;17.190;2022-08-27T10:01:47;19.50;;;5.40;;
41705;SDS011;27385;51.096;17.190;2022-08-27T10:04:26;15.60;;;4.30;;
41705;SDS011;27385;51.096;17.190;2022-08-27T10:07:13;15.00;;;4.90;;
41705;SDS011;27385;51.096;17.190;2022-08-27T10:09:52;14.50;;;4.40;;
41705;SDS011;27385;51.096;17.190;2022-08-27T10:12:28;17.00;;;4.80;;
41705;SDS011;27385;51.096;17.190;2022-08-27T10:15:05;17.00;;;3.80;;
41705;SDS011;27385;51.096;17.190;2022-08-27T10:17:44;13.00;;;4.50;;
41705;SDS011;27385;51.096;17.190;2022-08-27T10:20:28;17.20;;;4.10;;
41705;SDS011;27385;51.096;17.190;2022-08-27T10:23:15;16.30;;;5.40;;
41705;SDS011;27385;51.096;17.190;2022-08-27T10:25:56;16.40;;;5.00;;
41705;SDS011;27385;51.096;17.190;2022-08-27T10:28:37;13.90;;;4.50;;
41705;SDS011;27385;51.096;17.190;2022-08-27T10:31:23;11.50;;;3.50;;
41705;SDS011;27385;51.096;17.190;2022-08-27T10:34:07;9.70;;;3.20;;
41705;SDS011;27385;51.096;17.190;2022-08-27T10:36:58;12.70;;;3.20;;
41705;SDS011;27385;51.096;17.190;2022-08-27T10:39:41;14.30;;;3.90;;
41705;SDS011;27385;51.096;17.190;2022-08-27T10:42:25;11.70;;;3.00;;
41705;SDS011;27385;51.096;17.190;2022-08-27T10:45:04;11.80;;;3.60;;
41705;SDS011;27385;51.096;17.190;2022-08-27T10:47:56;13.50;;;3.90;;
41705;SDS011;27385;51.096;17.190;2022-08-27T10:50:35;12.40;;;4.00;;
41705;SDS011;27385;51.096;17.190;2022-08-27T10:53:16;13.50;;;4.50;;
41705;SDS011;27385;51.096;17.190;2022-08-27T10:55:57;12.90;;;4.00;;
41705;SDS011;27385;51.096;17.190;2022-08-27T10:58:40;11.80;;;3.40;;
41705;SDS011;27385;51.096;17.190;2022-08-27T11:01:31;10.50;;;2.90;;
41705;SDS011;27385;51.096;17.190;2022-08-27T11:04:13;16.00;;;2.90;;
41705;SDS011;27385;51.096;17.190;2022-08-27T11:06:50;10.40;;;2.60;;
41705;SDS011;27385;51.096;17.190;2022-08-27T11:09:29;10.20;;;3.40;;
41705;SDS011;27385;51.096;17.190;2022-08-27T11:12:08;11.20;;;2.70;;
41705;SDS011;27385;51.096;17.190;2022-08-27T11:14:44;8.60;;;1.80;;
41705;SDS011;27385;51.096;17.190;2022-08-27T11:17:23;7.00;;;1.30;;
41705;SDS011;27385;51.096;17.190;2022-08-27T11:20:05;4.40;;;1.10;;
41705;SDS011;27385;51.096;17.190;2022-08-27T11:22:41;6.30;;;1.60;;
41705;SDS011;27385;51.096;17.190;2022-08-27T11:25:25;8.00;;;1.20;;
41705;SDS011;27385;51.096;17.190;2022-08-27T11:28:10;6.90;;;1.50;;
41705;SDS011;27385;51.096;17.190;2022-08-27T11:30:45;8.50;;;1.40;;
41705;SDS011;27385;51.096;17.190;2022-08-27T11:33:26;4.90;;;1.40;;
41705;SDS011;27385;51.096;17.190;2022-08-27T11:36:21;6.90;;;1.80;;
41705;SDS011;27385;51.096;17.190;2022-08-27T11:39:14;7.60;;;1.40;;
41705;SDS011;27385;51.096;17.190;2022-08-27T11:41:59;6.00;;;1.20;;
41705;SDS011;27385;51.096;17.190;2022-08-27T11:44:40;6.00;;;1.20;;
41705;SDS011;27385;51.096;17.190;2022-08-27T11:49:49;6.50;;;1.60;;
41705;SDS011;27385;51.096;17.190;2022-08-27T11:52:25;6.60;;;1.40;;
41705;SDS011;27385;51.096;17.190;2022-08-27T11:55:10;8.50;;;1.30;;
41705;SDS011;27385;51.096;17.190;2022-08-27T11:58:03;6.50;;;2.00;;
41705;SDS011;27385;51.096;17.190;2022-08-27T12:00:38;5.30;;;1.60;;
41705;SDS011;27385;51.096;17.190;2022-08-27T12:03:22;6.60;;;1.80;;
41705;SDS011;27385;51.096;17.190;2022-08-27T12:06:09;6.20;;;1.70;;
41705;SDS011;27385;51.096;17.190;2022-08-27T12:08:49;9.20;;;2.20;;
41705;SDS011;27385;51.096;17.190;2022-08-27T12:14:19;7.80;;;2.00;;
41705;SDS011;27385;51.096;17.190;2022-08-27T12:17:00;6.00;;;1.80;;
41705;SDS011;27385;51.096;17.190;2022-08-27T12:19:42;5.50;;;1.60;;
41705;SDS011;27385;51.096;17.190;2022-08-27T12:22:29;6.10;;;1.60;;
41705;SDS011;27385;51.096;17.190;2022-08-27T12:25:54;8.80;;;2.60;;
41705;SDS011;27385;51.096;17.190;2022-08-27T12:28:28;8.90;;;2.00;;
41705;SDS011;27385;51.096;17.190;2022-08-27T12:31:00;10.80;;;2.40;;
41705;SDS011;27385;51.096;17.190;2022-08-27T12:33:34;6.70;;;1.50;;
41705;SDS011;27385;51.096;17.190;2022-08-27T12:36:11;10.00;;;2.10;;
41705;SDS011;27385;51.096;17.190;2022-08-27T12:38:48;8.70;;;1.90;;
41705;SDS011;27385;51.096;17.190;2022-08-27T12:41:26;7.10;;;1.90;;
41705;SDS011;27385;51.096;17.190;2022-08-27T12:44:05;7.20;;;1.80;;
41705;SDS011;27385;51.096;17.190;2022-08-27T12:46:42;10.40;;;2.20;;
41705;SDS011;27385;51.096;17.190;2022-08-27T12:51:48;8.20;;;1.80;;
41705;SDS011;27385;51.096;17.190;2022-08-27T12:54:25;10.20;;;2.20;;
41705;SDS011;27385;51.096;17.190;2022-08-27T12:57:06;9.20;;;1.70;;
41705;SDS011;27385;51.096;17.190;2022-08-27T12:59:55;6.10;;;1.80;;
41705;SDS011;27385;51.096;17.190;2022-08-27T13:02:46;8.90;;;1.80;;
41705;SDS011;27385;51.096;17.190;2022-08-27T13:05:26;7.30;;;1.80;;
41705;SDS011;27385;51.096;17.190;2022-08-27T13:08:18;6.70;;;1.90;;
41705;SDS011;27385;51.096;17.190;2022-08-27T13:10:52;9.40;;;2.80;;
41705;SDS011;27385;51.096;17.190;2022-08-27T13:13:25;7.40;;;1.90;;
41705;SDS011;27385;51.096;17.190;2022-08-27T13:15:57;8.60;;;2.20;;
41705;SDS011;27385;51.096;17.190;2022-08-27T13:18:33;9.70;;;2.00;;
41705;SDS011;27385;51.096;17.190;2022-08-27T13:21:11;19.40;;;4.70;;
41705;SDS011;27385;51.096;17.190;2022-08-27T13:23:51;11.00;;;2.30;;
41705;SDS011;27385;51.096;17.190;2022-08-27T13:26:26;8.00;;;2.30;;
41705;SDS011;27385;51.096;17.190;2022-08-27T13:29:02;18.70;;;4.60;;
41705;SDS011;27385;51.096;17.190;2022-08-27T13:31:35;10.20;;;2.40;;
41705;SDS011;27385;51.096;17.190;2022-08-27T13:34:07;12.10;;;2.50;;
41705;SDS011;27385;51.096;17.190;2022-08-27T13:36:52;11.20;;;2.40;;
41705;SDS011;27385;51.096;17.190;2022-08-27T13:39:27;6.10;;;2.00;;
41705;SDS011;27385;51.096;17.190;2022-08-27T13:41:59;10.00;;;1.80;;
41705;SDS011;27385;51.096;17.190;2022-08-27T13:44:32;12.80;;;2.00;;
41705;SDS011;27385;51.096;17.190;2022-08-27T13:47:07;5.80;;;1.50;;
41705;SDS011;27385;51.096;17.190;2022-08-27T13:49:45;8.40;;;1.90;;
41705;SDS011;27385;51.096;17.190;2022-08-27T13:52:22;9.60;;;1.80;;
41705;SDS011;27385;51.096;17.190;2022-08-27T13:54:58;11.60;;;2.50;;
41705;SDS011;27385;51.096;17.190;2022-08-27T13:57:41;4.60;;;1.40;;
41705;SDS011;27385;51.096;17.190;2022-08-27T14:00:17;9.20;;;1.80;;
41705;SDS011;27385;51.096;17.190;2022-08-27T14:02:51;6.40;;;2.20;;
41705;SDS011;27385;51.096;17.190;2022-08-27T14:05:30;5.50;;;1.70;;
41705;SDS011;27385;51.096;17.190;2022-08-27T14:08:11;9.10;;;1.60;;
41705;SDS011;27385;51.096;17.190;2022-08-27T14:10:48;9.50;;;1.70;;
41705;SDS011;27385;51.096;17.190;2022-08-27T14:13:28;8.00;;;1.40;;
41705;SDS011;27385;51.096;17.190;2022-08-27T14:16:13;9.60;;;2.20;;
41705;SDS011;27385;51.096;17.190;2022-08-27T14:18:53;10.30;;;2.00;;
41705;SDS011;27385;51.096;17.190;2022-08-27T14:21:32;7.60;;;1.80;;
41705;SDS011;27385;51.096;17.190;2022-08-27T14:24:06;6.90;;;1.80;;
41705;SDS011;27385;51.096;17.190;2022-08-27T14:26:39;10.40;;;1.70;;
41705;SDS011;27385;51.096;17.190;2022-08-27T14:29:11;5.00;;;1.70;;
41705;SDS011;27385;51.096;17.190;2022-08-27T14:31:43;7.10;;;1.60;;
41705;SDS011;27385;51.096;17.190;2022-08-27T14:34:16;6.60;;;1.70;;
41705;SDS011;27385;51.096;17.190;2022-08-27T14:36:48;6.50;;;1.70;;
41705;SDS011;27385;51.096;17.190;2022-08-27T14:39:19;8.60;;;1.70;;
41705;SDS011;27385;51.096;17.190;2022-08-27T14:41:51;11.30;;;2.10;;
41705;SDS011;27385;51.096;17.190;2022-08-27T14:44:22;11.10;;;1.90;;
41705;SDS011;27385;51.096;17.190;2022-08-27T14:46:54;7.30;;;1.90;;
41705;SDS011;27385;51.096;17.190;2022-08-27T14:49:29;12.60;;;1.70;;
41705;SDS011;27385;51.096;17.190;2022-08-27T14:52:04;7.40;;;1.50;;
41705;SDS011;27385;51.096;17.190;2022-08-27T14:54:37;8.20;;;1.50;;
41705;SDS011;27385;51.096;17.190;2022-08-27T14:57:12;8.50;;;1.70;;
41705;SDS011;27385;51.096;17.190;2022-08-27T14:59:44;7.70;;;1.90;;
41705;SDS011;27385;51.096;17.190;2022-08-27T15:02:15;6.30;;;1.50;;
41705;SDS011;27385;51.096;17.190;2022-08-27T15:04:49;5.40;;;1.50;;
41705;SDS011;27385;51.096;17.190;2022-08-27T15:07:22;7.20;;;1.60;;
41705;SDS011;27385;51.096;17.190;2022-08-27T15:09:54;7.80;;;1.80;;
41705;SDS011;27385;51.096;17.190;2022-08-27T15:12:26;8.90;;;2.00;;
41705;SDS011;27385;51.096;17.190;2022-08-27T15:14:58;7.00;;;2.10;;
41705;SDS011;27385;51.096;17.190;2022-08-27T15:17:30;6.10;;;1.70;;